createdAt,value
2017-01-25T00:00:02.879Z,1030.71
2017-01-25T00:05:03.244Z,1030.73
2017-01-25T00:10:03.298Z,1030.88
2017-01-25T00:15:03.344Z,1030.78
2017-01-25T00:20:03.146Z,1030.72
2017-01-25T00:25:02.746Z,1030.74
2017-01-25T00:30:02.673Z,1030.63
2017-01-25T00:35:03.493Z,1030.55
2017-01-25T00:40:03.237Z,1030.5
2017-01-25T00:45:03.121Z,1030.49
2017-01-25T00:50:02.897Z,1030.51
2017-01-25T00:55:02.724Z,1030.47
2017-01-25T01:00:02.702Z,1030.52
2017-01-25T01:05:03.593Z,1030.47
2017-01-25T01:10:03.250Z,1030.56
2017-01-25T01:15:03.134Z,1030.53
2017-01-25T01:20:03.126Z,1030.51
2017-01-25T01:25:02.956Z,1030.52
2017-01-25T01:30:02.756Z,1030.48
2017-01-25T01:35:03.401Z,1030.55
2017-01-25T01:40:03.227Z,1030.47
2017-01-25T01:45:03.196Z,1030.44
2017-01-25T01:50:03.081Z,1030.48
2017-01-25T01:55:02.696Z,1030.53
2017-01-25T02:00:03.299Z,1030.49
2017-01-25T02:05:03.062Z,1030.47
2017-01-25T02:10:03.079Z,1030.54
2017-01-25T02:15:02.874Z,1030.49
2017-01-25T02:20:02.765Z,1030.56
2017-01-25T02:25:03.454Z,1030.44
2017-01-25T02:30:03.150Z,1030.51
2017-01-25T02:35:02.784Z,1030.53
2017-01-25T02:40:03.680Z,1030.56
2017-01-25T02:45:03.275Z,1030.55
2017-01-25T02:50:03.002Z,1030.61
2017-01-25T02:55:02.959Z,1030.58
2017-01-25T03:00:02.713Z,1030.56
2017-01-25T03:05:03.666Z,1030.54
2017-01-25T03:10:03.401Z,1030.56
2017-01-25T03:15:03.266Z,1030.45
2017-01-25T03:20:03.218Z,1030.51
2017-01-25T03:25:02.817Z,1030.52
2017-01-25T03:30:03.570Z,1030.55
2017-01-25T03:35:03.365Z,1030.48
2017-01-25T03:40:03.201Z,1030.51
2017-01-25T03:45:02.940Z,1030.47
2017-01-25T03:50:02.752Z,1030.41
2017-01-25T03:55:03.408Z,1030.39
2017-01-25T04:00:03.278Z,1030.43
2017-01-25T04:05:02.937Z,1030.37
2017-01-25T04:10:02.975Z,1030.4
2017-01-25T04:15:03.712Z,1030.52
2017-01-25T04:20:03.389Z,1030.52
2017-01-25T04:25:03.361Z,1030.53
2017-01-25T04:30:03.106Z,1030.54
2017-01-25T04:35:02.730Z,1030.56
2017-01-25T04:40:03.447Z,1030.51
2017-01-25T04:45:03.066Z,1030.52
2017-01-25T04:50:02.861Z,1030.51
2017-01-25T04:55:03.915Z,1030.55
2017-01-25T05:00:03.868Z,1030.53
2017-01-25T05:05:03.676Z,1030.62
2017-01-25T05:10:03.573Z,1030.57
2017-01-25T05:15:03.485Z,1030.55
2017-01-25T05:20:03.296Z,1030.64
2017-01-25T05:25:02.981Z,1030.66
2017-01-25T05:30:03.366Z,1030.56
2017-01-25T05:35:03.389Z,1030.57
2017-01-25T05:40:03.146Z,1030.65
2017-01-25T05:45:02.848Z,1030.65
2017-01-25T05:50:03.539Z,1030.69
2017-01-25T05:55:03.285Z,1030.63
2017-01-25T06:00:03.196Z,1030.66
2017-01-25T06:05:03.120Z,1030.67
2017-01-25T06:10:03.110Z,1030.7
2017-01-25T06:15:02.943Z,1030.73
2017-01-25T06:20:02.839Z,1030.77
2017-01-25T06:25:03.602Z,1030.77
2017-01-25T06:30:03.641Z,1030.85
2017-01-25T06:35:03.407Z,1030.85
2017-01-25T06:40:03.212Z,1030.83
2017-01-25T06:45:02.829Z,1030.93
2017-01-25T06:50:03.138Z,1030.9
2017-01-25T06:55:02.731Z,1030.93
2017-01-25T07:00:03.547Z,1030.92
2017-01-25T07:05:03.343Z,1030.94
2017-01-25T07:10:03.193Z,1030.93
2017-01-25T07:15:02.760Z,1030.95
2017-01-25T07:20:03.414Z,1031.01
2017-01-25T07:25:03.135Z,1031
2017-01-25T07:30:02.795Z,1030.96
2017-01-25T07:35:02.795Z,1031.08
2017-01-25T07:40:03.564Z,1031.07
2017-01-25T07:45:03.569Z,1031.22
2017-01-25T07:50:03.411Z,1031.29
2017-01-25T07:55:03.184Z,1031.34
2017-01-25T08:00:02.925Z,1031.5
2017-01-25T08:05:02.724Z,1031.55
2017-01-25T08:10:02.768Z,1031.64
2017-01-25T08:15:03.494Z,1031.75
2017-01-25T08:20:03.424Z,1031.72
2017-01-25T08:25:03.484Z,1031.65
2017-01-25T08:30:03.156Z,1031.73
2017-01-25T08:35:03.007Z,1031.71
2017-01-25T08:40:02.969Z,1031.76
2017-01-25T08:45:03.591Z,1031.77
2017-01-25T08:50:03.477Z,1031.79
2017-01-25T08:55:03.247Z,1031.83
2017-01-25T09:00:03.040Z,1031.79
2017-01-25T09:05:02.834Z,1031.84
2017-01-25T09:10:03.512Z,1031.89
2017-01-25T09:15:03.231Z,1031.87
2017-01-25T09:20:02.959Z,1031.9
2017-01-25T09:25:02.786Z,1031.96
2017-01-25T09:30:02.678Z,1032
2017-01-25T09:35:03.447Z,1031.94
2017-01-25T09:40:03.287Z,1032.04
2017-01-25T09:45:03.051Z,1032.04
2017-01-25T09:50:03.719Z,1032.04
2017-01-25T09:55:03.618Z,1032.04
2017-01-25T10:00:03.299Z,1031.96
2017-01-25T10:05:03.026Z,1031.92
2017-01-25T10:10:03.526Z,1031.82
2017-01-25T10:15:03.193Z,1031.77
2017-01-25T10:20:03.074Z,1031.79
2017-01-25T10:25:02.846Z,1031.69
2017-01-25T10:30:02.859Z,1031.7
2017-01-25T10:35:03.577Z,1031.68
2017-01-25T10:40:02.908Z,1031.59
2017-01-25T10:45:03.652Z,1031.51
2017-01-25T10:50:02.756Z,1031.43
2017-01-25T10:55:03.422Z,1031.37
2017-01-25T11:00:03.411Z,1031.35
2017-01-25T11:05:03.171Z,1031.23
2017-01-25T11:10:02.967Z,1031.16
2017-01-25T11:15:02.722Z,1031.03
2017-01-25T11:20:03.542Z,1031.1
2017-01-25T11:25:03.243Z,1031.09
2017-01-25T11:30:03.529Z,1031
2017-01-25T11:35:03.591Z,1031.02
2017-01-25T11:40:03.263Z,1030.93
2017-01-25T11:45:02.679Z,1030.85
2017-01-25T11:50:02.909Z,1030.75
2017-01-25T11:55:03.317Z,1030.65
2017-01-25T12:00:02.840Z,1030.68
2017-01-25T12:05:02.900Z,1030.63
2017-01-25T12:10:02.880Z,1030.59
2017-01-25T12:15:03.261Z,1030.44
2017-01-25T12:20:03.370Z,1030.4
2017-01-25T12:25:03.312Z,1030.44
2017-01-25T12:30:03.157Z,1030.35
2017-01-25T12:35:02.812Z,1030.42
2017-01-25T12:40:02.751Z,1030.36
2017-01-25T12:45:03.549Z,1030.37
2017-01-25T12:50:03.427Z,1030.22
2017-01-25T12:55:02.806Z,1030.13
2017-01-25T13:00:03.280Z,1030.03
2017-01-25T13:05:03.455Z,1030
2017-01-25T13:10:03.643Z,1029.96
2017-01-25T13:15:03.036Z,1029.93
2017-01-25T13:20:03.193Z,1029.84
2017-01-25T13:25:03.610Z,1029.8
2017-01-25T13:30:03.589Z,1029.64
2017-01-25T13:35:03.140Z,1029.57
2017-01-25T13:40:02.863Z,1029.65
2017-01-25T13:45:03.540Z,1029.61
2017-01-25T13:50:03.016Z,1029.56
2017-01-25T13:55:02.857Z,1029.53
2017-01-25T14:00:02.737Z,1029.44
2017-01-25T14:05:03.336Z,1029.44
2017-01-25T14:10:02.951Z,1029.47
2017-01-25T14:15:02.714Z,1029.45
2017-01-25T14:20:02.884Z,1029.48
2017-01-25T14:25:02.817Z,1029.44
2017-01-25T14:30:03.429Z,1029.38
2017-01-25T14:35:02.855Z,1029.39
2017-01-25T14:40:03.426Z,1029.4
2017-01-25T14:45:03.536Z,1029.41
2017-01-25T14:50:02.673Z,1029.4
2017-01-25T14:55:02.804Z,1029.34
2017-01-25T15:00:03.226Z,1029.3
2017-01-25T15:05:03.069Z,1029.3
2017-01-25T15:10:02.965Z,1029.28
2017-01-25T15:15:03.532Z,1029.2
2017-01-25T15:20:03.154Z,1029.21
2017-01-25T15:25:03.421Z,1029.25
2017-01-25T15:30:03.025Z,1029.22
2017-01-25T15:35:02.976Z,1029.17
2017-01-25T15:40:03.245Z,1029.11
2017-01-25T15:45:03.190Z,1029.14
2017-01-25T15:50:02.737Z,1029.09
2017-01-25T15:55:03.407Z,1029.07
2017-01-25T16:00:03.022Z,1029.09
2017-01-25T16:05:03.469Z,1029.19
2017-01-25T16:10:03.126Z,1029.24
2017-01-25T16:15:03.228Z,1029.31
2017-01-25T16:20:03.640Z,1029.25
2017-01-25T16:25:03.143Z,1029.29
2017-01-25T16:30:03.585Z,1029.21
2017-01-25T16:35:02.910Z,1029.16
2017-01-25T16:40:02.741Z,1029.2
2017-01-25T16:45:02.915Z,1029.22
2017-01-25T16:50:02.989Z,1029.19
2017-01-25T16:55:03.034Z,1029.26
2017-01-25T17:00:02.988Z,1029.29
2017-01-25T17:05:03.632Z,1029.21
2017-01-25T17:10:03.367Z,1029.28
2017-01-25T17:15:03.107Z,1029.24
2017-01-25T17:20:02.807Z,1029.27
2017-01-25T17:25:02.770Z,1029.34
2017-01-25T17:30:03.431Z,1029.3
2017-01-25T17:35:03.165Z,1029.26
2017-01-25T17:40:03.385Z,1029.33
2017-01-25T17:45:03.554Z,1029.28
2017-01-25T17:50:03.570Z,1029.29
2017-01-25T17:55:03.188Z,1029.38
2017-01-25T18:00:03.149Z,1029.35
2017-01-25T18:05:02.924Z,1029.4
2017-01-25T18:10:02.948Z,1029.4
2017-01-25T18:15:02.987Z,1029.35
2017-01-25T18:20:02.786Z,1029.4
2017-01-25T18:25:02.704Z,1029.42
2017-01-25T18:30:03.495Z,1029.36
2017-01-25T18:35:03.559Z,1029.32
2017-01-25T18:40:03.294Z,1029.27
2017-01-25T18:45:02.896Z,1029.12
2017-01-25T18:50:03.709Z,1029.12
2017-01-25T18:55:03.426Z,1029.07
2017-01-25T19:00:03.565Z,1029.04
2017-01-25T19:05:03.272Z,1029.15
2017-01-25T19:10:03.189Z,1029.19
2017-01-25T19:15:02.959Z,1029.28
2017-01-25T19:20:02.666Z,1029.36
2017-01-25T19:25:03.406Z,1029.37
2017-01-25T19:30:03.194Z,1029.33
2017-01-25T19:35:02.763Z,1029.34
2017-01-25T19:40:03.438Z,1029.3
2017-01-25T19:45:03.209Z,1029.28
2017-01-25T19:50:03.050Z,1029.17
2017-01-25T19:55:02.950Z,1029.2
2017-01-25T20:00:02.807Z,1029.15
2017-01-25T20:05:02.890Z,1029.21
2017-01-25T20:10:02.677Z,1029.21
2017-01-25T20:15:03.578Z,1029.2
2017-01-25T20:20:03.246Z,1029.21
2017-01-25T20:25:02.994Z,1029.16
2017-01-25T20:30:03.729Z,1029.15
2017-01-25T20:35:03.485Z,1029.1
2017-01-25T20:40:03.321Z,1029.05
2017-01-25T20:45:03.244Z,1029.16
2017-01-25T20:50:03.244Z,1029.19
2017-01-25T20:55:03.023Z,1029.15
2017-01-25T21:00:02.796Z,1029.16
2017-01-25T21:05:03.504Z,1029.13
2017-01-25T21:10:03.308Z,1029.12
2017-01-25T21:15:03.226Z,1029.11
2017-01-25T21:20:02.960Z,1029.13
2017-01-25T21:25:02.909Z,1029.14
2017-01-25T21:30:02.756Z,1029.15
2017-01-25T21:35:03.554Z,1029.11
2017-01-25T21:40:03.539Z,1029.11
2017-01-25T21:45:03.388Z,1029.14
2017-01-25T21:50:02.970Z,1029.2
2017-01-25T21:55:02.740Z,1029.14
2017-01-25T22:00:02.768Z,1029.08
2017-01-25T22:05:02.656Z,1029.13
2017-01-25T22:10:03.383Z,1029.12
2017-01-25T22:15:03.077Z,1029.13
2017-01-25T22:20:02.911Z,1029.19
2017-01-25T22:25:02.821Z,1029.19
2017-01-25T22:30:03.516Z,1029.21
2017-01-25T22:35:03.450Z,1029.17
2017-01-25T22:40:03.097Z,1029.12
2017-01-25T22:45:02.826Z,1029.16
2017-01-25T22:50:03.521Z,1029.16
2017-01-25T22:55:03.497Z,1029.12
2017-01-25T23:00:03.160Z,1029.16
2017-01-25T23:05:03.040Z,1029.12
2017-01-25T23:10:02.963Z,1029.2
2017-01-25T23:15:02.907Z,1029.16
2017-01-25T23:20:02.726Z,1029.08
2017-01-25T23:25:02.690Z,1029.12
2017-01-25T23:30:03.497Z,1029.18
2017-01-25T23:35:03.349Z,1029.11
2017-01-25T23:40:03.132Z,1029.1
2017-01-25T23:45:03.040Z,1029.11
2017-01-25T23:50:02.813Z,1029
2017-01-25T23:55:02.857Z,1029.03
